sensor_id;sensor_type;location;lat;lon;timestamp;pressure;altitude;pressure_sealevel;temperature;humidity
33859;BME280;20156;47.486;12.074;2022-12-13T00:01:23;63601.63;;;-144.78;100.00
33859;BME280;20156;47.486;12.074;2022-12-13T00:03:52;63601.63;;;-144.78;100.00
33859;BME280;20156;47.486;12.074;2022-12-13T00:06:18;63601.63;;;-144.78;100.00
33859;BME280;20156;47.486;12.074;2022-12-13T00:08:43;63601.63;;;-144.78;100.00
33859;BME280;20156;47.486;12.074;2022-12-13T00:11:11;63601.63;;;-144.78;100.00
33859;BME280;20156;47.486;12.074;2022-12-13T00:13:37;63601.63;;;-144.78;100.00
33859;BME280;20156;47.486;12.074;2022-12-13T00:16:12;63601.63;;;-144.78;100.00
33859;BME280;20156;47.486;12.074;2022-12-13T00:18:38;63601.63;;;-144.78;100.00
33859;BME280;20156;47.486;12.074;2022-12-13T00:21:05;63601.63;;;-144.78;100.00
33859;BME280;20156;47.486;12.074;2022-12-13T00:23:32;63601.63;;;-144.78;100.00
33859;BME280;20156;47.486;12.074;2022-12-13T00:26:06;63601.63;;;-144.78;100.00
33859;BME280;20156;47.486;12.074;2022-12-13T00:28:32;63601.63;;;-144.78;100.00
33859;BME280;20156;47.486;12.074;2022-12-13T00:31:01;63601.63;;;-144.78;100.00
33859;BME280;20156;47.486;12.074;2022-12-13T00:33:28;63601.63;;;-144.78;100.00
33859;BME280;20156;47.486;12.074;2022-12-13T00:35:53;63601.63;;;-144.78;100.00
33859;BME280;20156;47.486;12.074;2022-12-13T00:38:20;63601.63;;;-144.78;100.00
33859;BME280;20156;47.486;12.074;2022-12-13T00:40:45;63601.63;;;-144.78;100.00
33859;BME280;20156;47.486;12.074;2022-12-13T00:43:11;63601.63;;;-144.78;100.00
33859;BME280;20156;47.486;12.074;2022-12-13T00:45:36;63601.63;;;-144.78;100.00
33859;BME280;20156;47.486;12.074;2022-12-13T00:48:03;63601.63;;;-144.78;100.00
33859;BME280;20156;47.486;12.074;2022-12-13T00:50:29;63601.63;;;-144.78;100.00
33859;BME280;20156;47.486;12.074;2022-12-13T00:52:54;63601.63;;;-144.78;100.00
33859;BME280;20156;47.486;12.074;2022-12-13T00:55:20;63601.63;;;-144.78;100.00
33859;BME280;20156;47.486;12.074;2022-12-13T00:57:45;63601.63;;;-144.78;100.00
33859;BME280;20156;47.486;12.074;2022-12-13T01:00:11;63601.63;;;-144.78;100.00
33859;BME280;20156;47.486;12.074;2022-12-13T01:02:36;63601.63;;;-144.78;100.00
33859;BME280;20156;47.486;12.074;2022-12-13T01:05:02;63601.63;;;-144.78;100.00
33859;BME280;20156;47.486;12.074;2022-12-13T01:07:29;63601.63;;;-144.78;100.00
33859;BME280;20156;47.486;12.074;2022-12-13T01:09:56;63601.63;;;-144.78;100.00
33859;BME280;20156;47.486;12.074;2022-12-13T01:12:22;63601.63;;;-144.78;100.00
33859;BME280;20156;47.486;12.074;2022-12-13T01:14:48;63601.63;;;-144.78;100.00
33859;BME280;20156;47.486;12.074;2022-12-13T01:17:13;63601.63;;;-144.78;100.00
33859;BME280;20156;47.486;12.074;2022-12-13T01:19:39;63601.63;;;-144.78;100.00
33859;BME280;20156;47.486;12.074;2022-12-13T01:22:05;63601.63;;;-144.78;100.00
33859;BME280;20156;47.486;12.074;2022-12-13T01:24:31;63601.63;;;-144.78;100.00
33859;BME280;20156;47.486;12.074;2022-12-13T01:26:57;63601.63;;;-144.78;100.00
33859;BME280;20156;47.486;12.074;2022-12-13T01:29:23;63601.63;;;-144.78;100.00
33859;BME280;20156;47.486;12.074;2022-12-13T01:31:49;63601.63;;;-144.78;100.00
33859;BME280;20156;47.486;12.074;2022-12-13T01:34:17;63601.63;;;-144.78;100.00
33859;BME280;20156;47.486;12.074;2022-12-13T01:36:44;63601.63;;;-144.78;100.00
33859;BME280;20156;47.486;12.074;2022-12-13T01:39:12;63601.63;;;-144.78;100.00
33859;BME280;20156;47.486;12.074;2022-12-13T01:41:38;63601.63;;;-144.78;100.00
33859;BME280;20156;47.486;12.074;2022-12-13T01:47:08;63601.63;;;-144.78;100.00
33859;BME280;20156;47.486;12.074;2022-12-13T01:49:34;63601.63;;;-144.78;100.00
33859;BME280;20156;47.486;12.074;2022-12-13T01:52:02;63601.63;;;-144.78;100.00
33859;BME280;20156;47.486;12.074;2022-12-13T01:54:32;63601.63;;;-144.78;100.00
33859;BME280;20156;47.486;12.074;2022-12-13T01:56:58;63601.63;;;-144.78;100.00
33859;BME280;20156;47.486;12.074;2022-12-13T01:59:25;63601.63;;;-144.78;100.00
33859;BME280;20156;47.486;12.074;2022-12-13T02:01:51;63601.63;;;-144.78;100.00
33859;BME280;20156;47.486;12.074;2022-12-13T02:04:22;63601.63;;;-144.78;100.00
33859;BME280;20156;47.486;12.074;2022-12-13T02:06:50;63601.63;;;-144.78;100.00
33859;BME280;20156;47.486;12.074;2022-12-13T02:09:17;63601.63;;;-144.78;100.00
33859;BME280;20156;47.486;12.074;2022-12-13T02:11:43;63601.63;;;-144.78;100.00
33859;BME280;20156;47.486;12.074;2022-12-13T02:14:09;63601.63;;;-144.78;100.00
33859;BME280;20156;47.486;12.074;2022-12-13T02:36:03;63601.63;;;-144.78;100.00
33859;BME280;20156;47.486;12.074;2022-12-13T02:43:44;63601.63;;;-144.78;100.00
33859;BME280;20156;47.486;12.074;2022-12-13T02:46:11;63601.63;;;-144.78;100.00
33859;BME280;20156;47.486;12.074;2022-12-13T02:48:39;63601.63;;;-144.78;100.00
33859;BME280;20156;47.486;12.074;2022-12-13T02:51:08;63601.63;;;-144.78;100.00
33859;BME280;20156;47.486;12.074;2022-12-13T02:53:35;63601.63;;;-144.78;100.00
33859;BME280;20156;47.486;12.074;2022-12-13T02:56:01;63601.63;;;-144.78;100.00
33859;BME280;20156;47.486;12.074;2022-12-13T02:58:35;63601.63;;;-144.78;100.00
33859;BME280;20156;47.486;12.074;2022-12-13T03:06:34;63601.63;;;-144.78;100.00
33859;BME280;20156;47.486;12.074;2022-12-13T03:18:08;63601.63;;;-144.78;100.00
33859;BME280;20156;47.486;12.074;2022-12-13T03:20:47;63601.63;;;-144.78;100.00
33859;BME280;20156;47.486;12.074;2022-12-13T03:23:14;63601.63;;;-144.78;100.00
33859;BME280;20156;47.486;12.074;2022-12-13T03:25:40;63601.63;;;-144.78;100.00
33859;BME280;20156;47.486;12.074;2022-12-13T03:28:06;63601.63;;;-144.78;100.00
33859;BME280;20156;47.486;12.074;2022-12-13T03:30:32;63601.63;;;-144.78;100.00
33859;BME280;20156;47.486;12.074;2022-12-13T03:32:58;63601.63;;;-144.78;100.00
33859;BME280;20156;47.486;12.074;2022-12-13T03:35:24;63601.63;;;-144.78;100.00
33859;BME280;20156;47.486;12.074;2022-12-13T03:37:50;63601.63;;;-144.78;100.00
33859;BME280;20156;47.486;12.074;2022-12-13T03:40:16;63601.63;;;-144.78;100.00
33859;BME280;20156;47.486;12.074;2022-12-13T03:42:42;63601.63;;;-144.78;100.00
33859;BME280;20156;47.486;12.074;2022-12-13T03:45:08;63601.63;;;-144.78;100.00
33859;BME280;20156;47.486;12.074;2022-12-13T03:47:33;63601.63;;;-144.78;100.00
33859;BME280;20156;47.486;12.074;2022-12-13T03:49:59;63601.63;;;-144.78;100.00
33859;BME280;20156;47.486;12.074;2022-12-13T03:52:24;63601.63;;;-144.78;100.00
33859;BME280;20156;47.486;12.074;2022-12-13T03:54:49;63601.63;;;-144.78;100.00
33859;BME280;20156;47.486;12.074;2022-12-13T03:57:15;63601.63;;;-144.78;100.00
33859;BME280;20156;47.486;12.074;2022-12-13T03:59:40;63601.63;;;-144.78;100.00
33859;BME280;20156;47.486;12.074;2022-12-13T04:02:06;63601.63;;;-144.78;100.00
33859;BME280;20156;47.486;12.074;2022-12-13T04:04:31;63601.63;;;-144.78;100.00
33859;BME280;20156;47.486;12.074;2022-12-13T04:06:57;63601.63;;;-144.78;100.00
33859;BME280;20156;47.486;12.074;2022-12-13T04:09:22;63601.63;;;-144.78;100.00
33859;BME280;20156;47.486;12.074;2022-12-13T04:11:47;63601.63;;;-144.78;100.00
33859;BME280;20156;47.486;12.074;2022-12-13T04:14:31;63601.63;;;-144.78;100.00
33859;BME280;20156;47.486;12.074;2022-12-13T04:16:57;63601.63;;;-144.78;100.00
33859;BME280;20156;47.486;12.074;2022-12-13T04:19:22;63601.63;;;-144.78;100.00
33859;BME280;20156;47.486;12.074;2022-12-13T04:21:47;63601.63;;;-144.78;100.00
33859;BME280;20156;47.486;12.074;2022-12-13T04:24:13;63601.63;;;-144.78;100.00
33859;BME280;20156;47.486;12.074;2022-12-13T04:26:38;63601.63;;;-144.78;100.00
33859;BME280;20156;47.486;12.074;2022-12-13T04:29:04;63601.63;;;-144.78;100.00
33859;BME280;20156;47.486;12.074;2022-12-13T04:31:29;63601.63;;;-144.78;100.00
33859;BME280;20156;47.486;12.074;2022-12-13T04:33:54;63601.63;;;-144.78;100.00
33859;BME280;20156;47.486;12.074;2022-12-13T04:36:20;63601.63;;;-144.78;100.00
33859;BME280;20156;47.486;12.074;2022-12-13T04:38:49;63601.63;;;-144.78;100.00
33859;BME280;20156;47.486;12.074;2022-12-13T04:41:17;63601.63;;;-144.78;100.00
33859;BME280;20156;47.486;12.074;2022-12-13T04:43:43;63601.63;;;-144.78;100.00
33859;BME280;20156;47.486;12.074;2022-12-13T04:46:09;63601.63;;;-144.78;100.00
33859;BME280;20156;47.486;12.074;2022-12-13T04:48:35;63601.63;;;-144.78;100.00
33859;BME280;20156;47.486;12.074;2022-12-13T04:51:00;63601.63;;;-144.78;100.00
33859;BME280;20156;47.486;12.074;2022-12-13T04:53:27;63601.63;;;-144.78;100.00
33859;BME280;20156;47.486;12.074;2022-12-13T04:55:53;63601.63;;;-144.78;100.00
33859;BME280;20156;47.486;12.074;2022-12-13T04:58:18;63601.63;;;-144.78;100.00
33859;BME280;20156;47.486;12.074;2022-12-13T05:00:44;63601.63;;;-144.78;100.00
33859;BME280;20156;47.486;12.074;2022-12-13T05:03:10;63601.63;;;-144.78;100.00
33859;BME280;20156;47.486;12.074;2022-12-13T05:05:39;63601.63;;;-144.78;100.00
33859;BME280;20156;47.486;12.074;2022-12-13T05:08:05;63601.63;;;-144.78;100.00
33859;BME280;20156;47.486;12.074;2022-12-13T05:10:30;63601.63;;;-144.78;100.00
33859;BME280;20156;47.486;12.074;2022-12-13T05:12:58;63601.63;;;-144.78;100.00
33859;BME280;20156;47.486;12.074;2022-12-13T05:15:23;63601.63;;;-144.78;100.00
33859;BME280;20156;47.486;12.074;2022-12-13T05:17:48;63601.63;;;-144.78;100.00
33859;BME280;20156;47.486;12.074;2022-12-13T05:20:14;63601.63;;;-144.78;100.00
33859;BME280;20156;47.486;12.074;2022-12-13T05:22:39;63601.63;;;-144.78;100.00
33859;BME280;20156;47.486;12.074;2022-12-13T05:25:06;63601.63;;;-144.78;100.00
33859;BME280;20156;47.486;12.074;2022-12-13T05:27:32;63601.63;;;-144.78;100.00
33859;BME280;20156;47.486;12.074;2022-12-13T05:29:58;63601.63;;;-144.78;100.00
33859;BME280;20156;47.486;12.074;2022-12-13T05:32:24;63601.63;;;-144.78;100.00
33859;BME280;20156;47.486;12.074;2022-12-13T05:34:50;63601.63;;;-144.78;100.00
33859;BME280;20156;47.486;12.074;2022-12-13T05:37:15;63601.63;;;-144.78;100.00
33859;BME280;20156;47.486;12.074;2022-12-13T05:39:41;63601.63;;;-144.78;100.00
33859;BME280;20156;47.486;12.074;2022-12-13T05:42:08;63601.63;;;-144.78;100.00
33859;BME280;20156;47.486;12.074;2022-12-13T05:44:33;63601.63;;;-144.78;100.00
33859;BME280;20156;47.486;12.074;2022-12-13T05:46:59;63601.63;;;-144.78;100.00
33859;BME280;20156;47.486;12.074;2022-12-13T05:49:24;63601.63;;;-144.78;100.00
33859;BME280;20156;47.486;12.074;2022-12-13T05:51:50;63601.63;;;-144.78;100.00
33859;BME280;20156;47.486;12.074;2022-12-13T05:54:15;63601.63;;;-144.78;100.00
33859;BME280;20156;47.486;12.074;2022-12-13T05:56:41;63601.63;;;-144.78;100.00
33859;BME280;20156;47.486;12.074;2022-12-13T05:59:06;63601.63;;;-144.78;100.00
33859;BME280;20156;47.486;12.074;2022-12-13T06:01:35;63601.63;;;-144.78;100.00
33859;BME280;20156;47.486;12.074;2022-12-13T06:04:01;63601.63;;;-144.78;100.00
33859;BME280;20156;47.486;12.074;2022-12-13T06:06:26;63601.63;;;-144.78;100.00
33859;BME280;20156;47.486;12.074;2022-12-13T06:08:57;63601.63;;;-144.78;100.00
33859;BME280;20156;47.486;12.074;2022-12-13T06:11:23;63601.63;;;-144.78;100.00
33859;BME280;20156;47.486;12.074;2022-12-13T06:13:50;63601.63;;;-144.78;100.00
33859;BME280;20156;47.486;12.074;2022-12-13T06:16:42;93457.91;;;-11.81;100.00
33859;BME280;20156;47.486;12.074;2022-12-13T06:19:07;93340.53;;;-11.76;100.00
33859;BME280;20156;47.486;12.074;2022-12-13T06:21:33;93224.09;;;-11.81;100.00
33859;BME280;20156;47.486;12.074;2022-12-13T06:23:58;93125.09;;;-11.97;100.00
33859;BME280;20156;47.486;12.074;2022-12-13T06:26:24;93042.75;;;-12.11;100.00
33859;BME280;20156;47.486;12.074;2022-12-13T06:28:50;92978.78;;;-11.94;100.00
33859;BME280;20156;47.486;12.074;2022-12-13T06:31:16;92946.63;;;-12.20;100.00
33859;BME280;20156;47.486;12.074;2022-12-13T06:33:41;92890.63;;;-12.19;100.00
33859;BME280;20156;47.486;12.074;2022-12-13T06:36:07;92820.84;;;-11.93;100.00
33859;BME280;20156;47.486;12.074;2022-12-13T06:38:33;92761.38;;;-11.71;100.00
33859;BME280;20156;47.486;12.074;2022-12-13T06:41:11;92720.75;;;-11.65;100.00
33859;BME280;20156;47.486;12.074;2022-12-13T06:43:41;92704.31;;;-11.87;100.00
33859;BME280;20156;47.486;12.074;2022-12-13T06:46:08;92683.44;;;-11.78;100.00
33859;BME280;20156;47.486;12.074;2022-12-13T06:48:34;92683.31;;;-11.67;100.00
33859;BME280;20156;47.486;12.074;2022-12-13T06:51:01;92676.31;;;-11.63;100.00
33859;BME280;20156;47.486;12.074;2022-12-13T06:53:28;92682.00;;;-11.71;100.00
33859;BME280;20156;47.486;12.074;2022-12-13T06:55:53;92726.88;;;-11.87;100.00
33859;BME280;20156;47.486;12.074;2022-12-13T06:58:19;92721.03;;;-11.78;100.00
33859;BME280;20156;47.486;12.074;2022-12-13T07:00:44;92717.34;;;-11.74;100.00
33859;BME280;20156;47.486;12.074;2022-12-13T07:03:10;92712.56;;;-11.77;100.00
33859;BME280;20156;47.486;12.074;2022-12-13T07:05:37;92706.50;;;-11.65;100.00
33859;BME280;20156;47.486;12.074;2022-12-13T07:08:02;92697.94;;;-11.62;100.00
33859;BME280;20156;47.486;12.074;2022-12-13T07:10:28;92693.19;;;-11.65;100.00
33859;BME280;20156;47.486;12.074;2022-12-13T07:12:54;92678.13;;;-11.46;100.00
33859;BME280;20156;47.486;12.074;2022-12-13T07:15:20;92670.72;;;-11.38;100.00
33859;BME280;20156;47.486;12.074;2022-12-13T07:17:49;92674.31;;;-11.50;100.00
33859;BME280;20156;47.486;12.074;2022-12-13T07:20:15;92721.69;;;-11.66;100.00
33859;BME280;20156;47.486;12.074;2022-12-13T07:22:40;92761.41;;;-11.81;100.00
33859;BME280;20156;47.486;12.074;2022-12-13T07:25:07;92798.06;;;-11.90;100.00
33859;BME280;20156;47.486;12.074;2022-12-13T07:27:33;92825.44;;;-11.98;100.00
33859;BME280;20156;47.486;12.074;2022-12-13T07:29:58;92837.75;;;-11.85;100.00
33859;BME280;20156;47.486;12.074;2022-12-13T07:32:24;92838.28;;;-11.72;100.00
33859;BME280;20156;47.486;12.074;2022-12-13T07:34:49;92841.28;;;-11.68;100.00
33859;BME280;20156;47.486;12.074;2022-12-13T07:37:15;92845.16;;;-11.55;100.00
33859;BME280;20156;47.486;12.074;2022-12-13T07:39:40;92864.66;;;-11.48;100.00
33859;BME280;20156;47.486;12.074;2022-12-13T07:42:06;92871.78;;;-11.54;100.00
33859;BME280;20156;47.486;12.074;2022-12-13T07:44:31;92905.78;;;-11.70;100.00
33859;BME280;20156;47.486;12.074;2022-12-13T07:47:00;92892.91;;;-11.37;100.00
33859;BME280;20156;47.486;12.074;2022-12-13T07:49:25;92892.91;;;-11.27;100.00
33859;BME280;20156;47.486;12.074;2022-12-13T07:51:51;92894.50;;;-11.16;100.00
33859;BME280;20156;47.486;12.074;2022-12-13T07:54:16;92952.97;;;-11.85;100.00
33859;BME280;20156;47.486;12.074;2022-12-13T07:56:42;92949.56;;;-11.84;100.00
33859;BME280;20156;47.486;12.074;2022-12-13T07:59:08;92936.66;;;-11.70;100.00
33859;BME280;20156;47.486;12.074;2022-12-13T08:01:34;92894.22;;;-11.33;100.00
33859;BME280;20156;47.486;12.074;2022-12-13T08:04:00;92875.22;;;-11.16;100.00
33859;BME280;20156;47.486;12.074;2022-12-13T08:06:26;92881.19;;;-11.07;100.00
33859;BME280;20156;47.486;12.074;2022-12-13T08:08:55;92918.53;;;-11.24;100.00
33859;BME280;20156;47.486;12.074;2022-12-13T08:11:21;92946.00;;;-11.22;100.00
33859;BME280;20156;47.486;12.074;2022-12-13T08:13:46;92964.47;;;-11.13;100.00
33859;BME280;20156;47.486;12.074;2022-12-13T08:16:12;92969.59;;;-11.15;100.00
33859;BME280;20156;47.486;12.074;2022-12-13T08:18:42;92980.44;;;-11.14;100.00
33859;BME280;20156;47.486;12.074;2022-12-13T08:21:09;92992.56;;;-11.19;100.00
33859;BME280;20156;47.486;12.074;2022-12-13T08:23:35;92971.22;;;-11.04;100.00
33859;BME280;20156;47.486;12.074;2022-12-13T08:26:02;92944.81;;;-10.89;100.00
33859;BME280;20156;47.486;12.074;2022-12-13T08:28:29;92933.97;;;-10.80;100.00
33859;BME280;20156;47.486;12.074;2022-12-13T08:30:54;92914.94;;;-10.53;100.00
33859;BME280;20156;47.486;12.074;2022-12-13T08:33:20;92907.53;;;-10.55;100.00
33859;BME280;20156;47.486;12.074;2022-12-13T08:35:47;92919.25;;;-10.46;100.00
33859;BME280;20156;47.486;12.074;2022-12-13T08:38:13;92944.69;;;-10.68;100.00
33859;BME280;20156;47.486;12.074;2022-12-13T08:40:38;92946.25;;;-10.57;100.00
33859;BME280;20156;47.486;12.074;2022-12-13T08:43:04;92946.50;;;-10.51;100.00
33859;BME280;20156;47.486;12.074;2022-12-13T08:45:30;92926.66;;;-10.35;100.00
33859;BME280;20156;47.486;12.074;2022-12-13T08:47:59;92899.06;;;-10.07;100.00
33859;BME280;20156;47.486;12.074;2022-12-13T08:50:25;92870.28;;;-9.95;100.00
33859;BME280;20156;47.486;12.074;2022-12-13T08:52:51;92864.00;;;-9.81;100.00
33859;BME280;20156;47.486;12.074;2022-12-13T08:55:17;92855.38;;;-9.79;100.00
33859;BME280;20156;47.486;12.074;2022-12-13T08:57:43;92844.66;;;-9.71;100.00
33859;BME280;20156;47.486;12.074;2022-12-13T09:00:16;92814.34;;;-9.52;100.00
33859;BME280;20156;47.486;12.074;2022-12-13T09:02:43;92808.88;;;-9.47;100.00
33859;BME280;20156;47.486;12.074;2022-12-13T09:05:09;92786.56;;;-9.24;100.00
33859;BME280;20156;47.486;12.074;2022-12-13T09:07:36;92818.94;;;-9.65;100.00
33859;BME280;20156;47.486;12.074;2022-12-13T09:10:04;92825.81;;;-9.67;100.00
33859;BME280;20156;47.486;12.074;2022-12-13T09:12:29;92829.78;;;-9.47;100.00
33859;BME280;20156;47.486;12.074;2022-12-13T09:14:55;92822.53;;;-9.32;100.00
33859;BME280;20156;47.486;12.074;2022-12-13T09:17:20;92824.25;;;-9.15;100.00
33859;BME280;20156;47.486;12.074;2022-12-13T09:19:46;92840.13;;;-9.14;100.00
33859;BME280;20156;47.486;12.074;2022-12-13T09:22:11;92862.06;;;-9.06;100.00
33859;BME280;20156;47.486;12.074;2022-12-13T09:24:36;92887.09;;;-9.05;100.00
33859;BME280;20156;47.486;12.074;2022-12-13T09:27:03;92904.72;;;-9.05;100.00
33859;BME280;20156;47.486;12.074;2022-12-13T09:29:29;92927.91;;;-9.29;100.00
33859;BME280;20156;47.486;12.074;2022-12-13T09:31:54;92926.91;;;-9.36;100.00
33859;BME280;20156;47.486;12.074;2022-12-13T09:34:20;92914.34;;;-9.18;100.00
33859;BME280;20156;47.486;12.074;2022-12-13T09:36:45;92902.09;;;-8.95;100.00
33859;BME280;20156;47.486;12.074;2022-12-13T09:39:10;92894.97;;;-8.82;100.00
33859;BME280;20156;47.486;12.074;2022-12-13T09:41:37;92889.59;;;-8.69;100.00
33859;BME280;20156;47.486;12.074;2022-12-13T09:44:10;92876.69;;;-8.40;100.00
33859;BME280;20156;47.486;12.074;2022-12-13T09:46:42;92916.38;;;-8.42;100.00
33859;BME280;20156;47.486;12.074;2022-12-13T09:49:15;92925.09;;;-8.03;100.00
33859;BME280;20156;47.486;12.074;2022-12-13T09:51:45;92935.78;;;-8.09;100.00
33859;BME280;20156;47.486;12.074;2022-12-13T09:54:18;92927.22;;;-7.90;100.00
33859;BME280;20156;47.486;12.074;2022-12-13T09:56:44;92923.88;;;-7.65;100.00
33859;BME280;20156;47.486;12.074;2022-12-13T09:59:16;92934.94;;;-7.58;100.00
33859;BME280;20156;47.486;12.074;2022-12-13T10:01:43;92954.63;;;-7.61;100.00
33859;BME280;20156;47.486;12.074;2022-12-13T10:04:17;92940.25;;;-7.35;100.00
33859;BME280;20156;47.486;12.074;2022-12-13T10:06:43;92951.03;;;-7.16;100.00
33859;BME280;20156;47.486;12.074;2022-12-13T10:09:12;92946.06;;;-6.84;100.00
33859;BME280;20156;47.486;12.074;2022-12-13T10:11:50;92993.03;;;-7.41;100.00
33859;BME280;20156;47.486;12.074;2022-12-13T10:14:29;93009.34;;;-7.36;100.00
33859;BME280;20156;47.486;12.074;2022-12-13T10:16:59;93005.78;;;-7.17;100.00
33859;BME280;20156;47.486;12.074;2022-12-13T10:19:34;92990.25;;;-6.80;100.00
33859;BME280;20156;47.486;12.074;2022-12-13T10:22:02;92996.25;;;-6.73;100.00
33859;BME280;20156;47.486;12.074;2022-12-13T10:24:52;92981.16;;;-6.32;100.00
33859;BME280;20156;47.486;12.074;2022-12-13T10:27:47;92981.66;;;-6.20;100.00
33859;BME280;20156;47.486;12.074;2022-12-13T10:30:15;92973.09;;;-5.95;100.00
33859;BME280;20156;47.486;12.074;2022-12-13T10:33:38;92986.00;;;-5.82;100.00
33859;BME280;20156;47.486;12.074;2022-12-13T10:38:39;92996.25;;;-5.59;100.00
33859;BME280;20156;47.486;12.074;2022-12-13T10:41:32;93023.97;;;-5.82;100.00
33859;BME280;20156;47.486;12.074;2022-12-13T10:44:25;93038.06;;;-5.95;100.00
33859;BME280;20156;47.486;12.074;2022-12-13T10:47:17;93026.69;;;-5.91;100.00
33859;BME280;20156;47.486;12.074;2022-12-13T10:49:57;93024.09;;;-5.75;100.00
33859;BME280;20156;47.486;12.074;2022-12-13T10:52:37;93006.56;;;-5.68;100.00
33859;BME280;20156;47.486;12.074;2022-12-13T10:55:06;93002.44;;;-5.53;100.00
33859;BME280;20156;47.486;12.074;2022-12-13T10:57:50;92999.69;;;-5.43;100.00
33859;BME280;20156;47.486;12.074;2022-12-13T11:00:38;92981.56;;;-5.16;100.00
33859;BME280;20156;47.486;12.074;2022-12-13T11:03:06;93000.31;;;-5.33;100.00
33859;BME280;20156;47.486;12.074;2022-12-13T11:05:34;93012.06;;;-5.49;100.00
33859;BME280;20156;47.486;12.074;2022-12-13T11:08:41;92993.13;;;-5.13;100.00
33859;BME280;20156;47.486;12.074;2022-12-13T11:11:07;92984.94;;;-4.93;100.00
33859;BME280;20156;47.486;12.074;2022-12-13T11:14:00;92992.28;;;-5.06;100.00
33859;BME280;20156;47.486;12.074;2022-12-13T11:16:33;92990.69;;;-4.99;100.00
33859;BME280;20156;47.486;12.074;2022-12-13T11:21:58;92968.88;;;-4.77;100.00
33859;BME280;20156;47.486;12.074;2022-12-13T11:24:30;92951.91;;;-4.54;100.00
33859;BME280;20156;47.486;12.074;2022-12-13T11:27:00;92945.03;;;-4.22;100.00
33859;BME280;20156;47.486;12.074;2022-12-13T11:38:28;92968.53;;;-3.82;100.00
33859;BME280;20156;47.486;12.074;2022-12-13T11:41:28;92981.00;;;-3.96;100.00
33859;BME280;20156;47.486;12.074;2022-12-13T11:46:37;92954.63;;;-3.57;100.00
33859;BME280;20156;47.486;12.074;2022-12-13T11:49:14;92969.94;;;-3.65;100.00
33859;BME280;20156;47.486;12.074;2022-12-13T11:51:55;92962.16;;;-3.64;100.00
33859;BME280;20156;47.486;12.074;2022-12-13T11:54:45;92949.19;;;-3.69;100.00
33859;BME280;20156;47.486;12.074;2022-12-13T11:57:24;92958.91;;;-3.57;100.00
33859;BME280;20156;47.486;12.074;2022-12-13T12:00:03;92980.97;;;-3.58;100.00
33859;BME280;20156;47.486;12.074;2022-12-13T12:02:34;92993.41;;;-3.63;100.00
33859;BME280;20156;47.486;12.074;2022-12-13T12:05:22;93020.25;;;-3.83;100.00
33859;BME280;20156;47.486;12.074;2022-12-13T12:08:04;92997.63;;;-3.93;100.00
33859;BME280;20156;47.486;12.074;2022-12-13T12:10:37;92964.97;;;-3.96;100.00
33859;BME280;20156;47.486;12.074;2022-12-13T12:13:27;92939.06;;;-3.91;100.00
33859;BME280;20156;47.486;12.074;2022-12-13T12:18:44;92950.94;;;-4.07;100.00
33859;BME280;20156;47.486;12.074;2022-12-13T12:30:05;92944.19;;;-3.77;100.00
33859;BME280;20156;47.486;12.074;2022-12-13T12:32:49;92940.06;;;-3.78;100.00
33859;BME280;20156;47.486;12.074;2022-12-13T12:43:37;92873.53;;;-4.03;100.00
33859;BME280;20156;47.486;12.074;2022-12-13T12:56:48;92817.03;;;-3.60;100.00
33859;BME280;20156;47.486;12.074;2022-12-13T13:01:52;92853.19;;;-3.58;100.00
33859;BME280;20156;47.486;12.074;2022-12-13T13:04:26;92866.34;;;-3.70;100.00
33859;BME280;20156;47.486;12.074;2022-12-13T13:06:59;92874.91;;;-3.71;100.00
33859;BME280;20156;47.486;12.074;2022-12-13T13:09:28;92866.44;;;-3.63;100.00
33859;BME280;20156;47.486;12.074;2022-12-13T13:11:55;92859.91;;;-3.36;100.00
33859;BME280;20156;47.486;12.074;2022-12-13T13:14:35;92884.19;;;-3.34;100.00
33859;BME280;20156;47.486;12.074;2022-12-13T13:22:32;92877.44;;;-3.41;100.00
33859;BME280;20156;47.486;12.074;2022-12-13T13:25:13;92864.72;;;-3.26;100.00
33859;BME280;20156;47.486;12.074;2022-12-13T13:27:45;92867.25;;;-3.26;100.00
33859;BME280;20156;47.486;12.074;2022-12-13T13:30:20;92886.22;;;-3.44;100.00
33859;BME280;20156;47.486;12.074;2022-12-13T13:32:47;92920.81;;;-3.72;100.00
33859;BME280;20156;47.486;12.074;2022-12-13T13:40:49;92902.97;;;-4.54;100.00
33859;BME280;20156;47.486;12.074;2022-12-13T13:43:16;92862.56;;;-4.56;100.00
33859;BME280;20156;47.486;12.074;2022-12-13T13:45:57;92820.34;;;-4.48;100.00
33859;BME280;20156;47.486;12.074;2022-12-13T13:48:41;92808.88;;;-4.59;100.00
33859;BME280;20156;47.486;12.074;2022-12-13T14:21:24;92721.69;;;-5.48;100.00
33859;BME280;20156;47.486;12.074;2022-12-13T14:27:04;92697.44;;;-5.42;100.00
33859;BME280;20156;47.486;12.074;2022-12-13T14:29:37;92696.03;;;-5.45;100.00
33859;BME280;20156;47.486;12.074;2022-12-13T14:32:09;92692.97;;;-5.40;100.00
33859;BME280;20156;47.486;12.074;2022-12-13T14:34:45;92684.16;;;-5.45;100.00
33859;BME280;20156;47.486;12.074;2022-12-13T14:37:27;92676.91;;;-5.48;100.00
33859;BME280;20156;47.486;12.074;2022-12-13T14:39:53;92674.38;;;-5.48;100.00
33859;BME280;20156;47.486;12.074;2022-12-13T14:42:24;92678.09;;;-5.58;100.00
33859;BME280;20156;47.486;12.074;2022-12-13T14:44:51;92681.41;;;-5.58;100.00
33859;BME280;20156;47.486;12.074;2022-12-13T14:47:18;92672.19;;;-5.51;100.00
33859;BME280;20156;47.486;12.074;2022-12-13T14:49:45;92673.03;;;-5.58;100.00
33859;BME280;20156;47.486;12.074;2022-12-13T14:52:32;92642.09;;;-5.46;100.00
33859;BME280;20156;47.486;12.074;2022-12-13T14:55:01;92623.22;;;-5.43;100.00